Alberton, Montana
Current Conditions -  °F | °C
As of 4:53 PM on Friday 21 Nov 2014 (Local Time) from KMSO Reporting Station
Overcast Overcast  
Wind Chill: 33°   Ceiling: 7000
Heat Index: 33°   Visibility: 7mi
Dew Point: 29°   Wind: 3mph
Humidity: 85%   Direction: 240°WSW
Pressure: 29.77"   Gusts: NA
Location:  47°N, 114.47°W
Report Text: KMSO 212353Z 24003KT 7SM OVC070 01/M02 A2977 RMK AO2 SLP109 T00061017 10011 21006 58029
Loading
Personal Weather Stations






























Interactive Weather Map New forecast layout! Learn more

10-Day Weather Forecast

Advertisements
Track Severe Weather on mobile